createdAt,value
2023-01-19T00:00:52.355Z,8.20
2023-01-19T00:03:19.084Z,8.20
2023-01-19T00:05:47.815Z,8.30
2023-01-19T00:08:15.057Z,8.30
2023-01-19T00:10:47.940Z,8.30
2023-01-19T00:13:15.116Z,8.30
2023-01-19T00:15:41.801Z,8.30
2023-01-19T00:18:10.615Z,8.30
2023-01-19T00:20:38.272Z,8.30
2023-01-19T00:23:05.266Z,8.20
2023-01-19T00:25:32.067Z,8.20
2023-01-19T00:28:01.360Z,8.20
2023-01-19T00:30:28.657Z,8.20
2023-01-19T00:32:55.911Z,8.10
2023-01-19T00:35:22.598Z,8.10
2023-01-19T00:37:49.308Z,8.10
2023-01-19T00:40:16.143Z,8.10
2023-01-19T00:42:45.943Z,8.10
2023-01-19T00:45:14.043Z,8.10
2023-01-19T00:47:40.931Z,8.20
2023-01-19T00:50:11.799Z,8.20
2023-01-19T00:52:39.918Z,8.20
2023-01-19T00:55:08.107Z,8.20
2023-01-19T00:57:35.119Z,8.20
2023-01-19T01:00:02.124Z,8.20
2023-01-19T01:02:29.002Z,8.10
2023-01-19T01:04:56.749Z,8.10
2023-01-19T01:07:24.430Z,8.10
2023-01-19T01:09:51.325Z,8.10
2023-01-19T01:12:18.001Z,8.10
2023-01-19T01:14:44.806Z,8.10
2023-01-19T01:17:14.165Z,8.10
2023-01-19T01:19:41.733Z,8.10
2023-01-19T01:22:10.110Z,8.10
2023-01-19T01:24:36.780Z,8.10
2023-01-19T01:27:03.634Z,8.10
2023-01-19T01:29:30.392Z,8.10
2023-01-19T01:31:57.085Z,8.10
2023-01-19T01:34:23.829Z,8.10
2023-01-19T01:36:50.580Z,8.10
2023-01-19T01:39:17.245Z,8.10
2023-01-19T01:41:43.983Z,8.10
2023-01-19T01:44:50.261Z,8.10
2023-01-19T01:47:34.473Z,8.10
2023-01-19T01:51:03.285Z,8.10
2023-01-19T01:53:32.693Z,8.10
2023-01-19T01:56:02.558Z,8.10
2023-01-19T01:58:32.465Z,8.10
2023-01-19T02:01:17.719Z,8.00
2023-01-19T02:03:44.750Z,8.00
2023-01-19T02:06:13.521Z,8.10
2023-01-19T02:09:09.248Z,8.10
2023-01-19T02:11:54.914Z,8.10
2023-01-19T02:14:22.618Z,8.10
2023-01-19T02:16:49.484Z,8.10
2023-01-19T02:19:30.994Z,8.10
2023-01-19T02:22:09.558Z,8.20
2023-01-19T02:24:36.345Z,8.20
2023-01-19T02:27:04.686Z,8.30
2023-01-19T02:29:33.611Z,8.30
2023-01-19T02:32:02.105Z,8.30
2023-01-19T02:34:29.750Z,8.40
2023-01-19T02:37:06.598Z,8.40
2023-01-19T02:39:46.671Z,8.50
2023-01-19T02:42:20.432Z,8.50
2023-01-19T02:44:50.164Z,8.50
2023-01-19T02:47:16.858Z,8.50
2023-01-19T02:49:43.635Z,8.50
2023-01-19T02:52:17.810Z,8.50
2023-01-19T02:55:02.271Z,8.50
2023-01-19T02:57:51.603Z,8.50
2023-01-19T03:00:33.746Z,8.50
2023-01-19T03:03:27.015Z,8.60
2023-01-19T03:06:08.310Z,8.60
2023-01-19T03:09:00.180Z,8.60
2023-01-19T03:11:33.698Z,8.60
2023-01-19T03:14:14.612Z,8.70
2023-01-19T03:16:48.698Z,8.70
2023-01-19T03:19:29.870Z,8.70
2023-01-19T03:22:00.186Z,8.70
2023-01-19T03:24:31.437Z,8.70
2023-01-19T03:27:06.975Z,8.70
2023-01-19T03:29:35.853Z,8.70
2023-01-19T03:32:06.040Z,8.70
2023-01-19T03:34:34.589Z,8.60
2023-01-19T03:37:04.237Z,8.60
2023-01-19T03:39:31.542Z,8.60
2023-01-19T03:42:11.696Z,8.60
2023-01-19T03:44:40.268Z,8.60
2023-01-19T03:47:08.713Z,8.60
2023-01-19T03:49:37.766Z,8.60
2023-01-19T03:52:05.278Z,8.60
2023-01-19T03:54:32.316Z,8.60
2023-01-19T03:56:59.331Z,8.50
2023-01-19T03:59:26.032Z,8.50
2023-01-19T04:01:52.759Z,8.50
2023-01-19T04:04:19.450Z,8.50
2023-01-19T04:06:46.133Z,8.60
2023-01-19T04:09:12.868Z,8.60
2023-01-19T04:11:39.683Z,8.50
2023-01-19T04:14:06.369Z,8.40
2023-01-19T04:16:33.013Z,8.40
2023-01-19T04:18:59.644Z,8.40
2023-01-19T04:21:26.275Z,8.40
2023-01-19T04:23:53.235Z,8.40
2023-01-19T04:26:20.349Z,8.30
2023-01-19T04:28:47.006Z,8.30
2023-01-19T04:31:14.328Z,8.30
2023-01-19T04:33:41.290Z,8.30
2023-01-19T04:36:08.668Z,8.40
2023-01-19T04:38:35.788Z,8.40
2023-01-19T04:41:02.548Z,8.40
2023-01-19T04:43:29.246Z,8.40
2023-01-19T04:45:55.925Z,8.40
2023-01-19T04:48:22.780Z,8.40
2023-01-19T04:50:52.186Z,8.50
2023-01-19T04:53:18.884Z,8.50
2023-01-19T04:55:46.640Z,8.40
2023-01-19T04:58:13.298Z,8.40
2023-01-19T05:00:39.927Z,8.40
2023-01-19T05:03:06.652Z,8.40
2023-01-19T05:05:33.421Z,8.40
2023-01-19T05:08:00.594Z,8.40
2023-01-19T05:10:27.390Z,8.40
2023-01-19T05:12:54.538Z,8.40
2023-01-19T05:15:21.311Z,8.40
2023-01-19T05:17:48.053Z,8.40
2023-01-19T05:20:17.328Z,8.40
2023-01-19T05:22:54.056Z,8.40
2023-01-19T05:25:20.940Z,8.40
2023-01-19T05:27:47.897Z,8.40
2023-01-19T05:30:14.842Z,8.40
2023-01-19T05:32:41.673Z,8.40
2023-01-19T05:35:08.884Z,8.40
2023-01-19T05:37:35.611Z,8.40
2023-01-19T05:40:02.300Z,8.40
2023-01-19T05:42:30.344Z,8.40
2023-01-19T05:44:59.505Z,8.40
2023-01-19T05:47:26.424Z,8.40
2023-01-19T05:49:53.152Z,8.40
2023-01-19T05:52:19.831Z,8.40
2023-01-19T05:54:46.570Z,8.40
2023-01-19T05:57:13.321Z,8.40
2023-01-19T05:59:40.400Z,8.50
2023-01-19T06:02:07.132Z,8.50
2023-01-19T06:04:33.832Z,8.50
2023-01-19T06:07:02.148Z,8.50
2023-01-19T06:09:29.290Z,8.50
2023-01-19T06:11:57.645Z,8.50
2023-01-19T06:14:25.078Z,8.50
2023-01-19T06:16:52.251Z,8.60
2023-01-19T06:19:19.126Z,8.60
2023-01-19T06:21:49.749Z,8.70
2023-01-19T06:24:16.594Z,8.70
2023-01-19T06:26:43.745Z,8.80
2023-01-19T06:29:12.177Z,8.90
2023-01-19T06:31:38.949Z,8.90
2023-01-19T06:34:05.952Z,8.90
2023-01-19T06:36:32.597Z,8.90
2023-01-19T06:38:59.286Z,9.00
2023-01-19T06:41:25.956Z,8.90
2023-01-19T06:43:52.600Z,8.90
2023-01-19T06:46:19.254Z,8.90
2023-01-19T06:48:47.016Z,9.00
2023-01-19T06:51:13.719Z,8.90
2023-01-19T06:53:40.429Z,9.00
2023-01-19T06:56:08.111Z,9.00
2023-01-19T06:58:35.016Z,8.90
2023-01-19T07:01:03.878Z,9.00
2023-01-19T07:03:30.877Z,8.90
2023-01-19T07:05:57.817Z,9.00
2023-01-19T07:08:24.571Z,9.00
2023-01-19T07:11:25.361Z,8.90
2023-01-19T07:13:39.980Z,8.90
2023-01-19T07:16:10.711Z,8.90
2023-01-19T07:18:38.304Z,8.80
2023-01-19T07:21:05.275Z,8.80
2023-01-19T07:23:32.007Z,8.70
2023-01-19T07:26:01.629Z,8.70
2023-01-19T07:28:29.832Z,8.60
2023-01-19T07:30:56.793Z,8.60
2023-01-19T07:33:25.783Z,8.60
2023-01-19T07:35:52.949Z,8.50
2023-01-19T07:38:20.441Z,8.50
2023-01-19T07:40:47.286Z,8.50
2023-01-19T07:43:15.081Z,8.40
2023-01-19T07:45:42.077Z,8.40
2023-01-19T07:48:08.920Z,8.40
2023-01-19T07:50:35.604Z,8.30
2023-01-19T07:53:07.299Z,8.30
2023-01-19T07:55:34.334Z,8.30
2023-01-19T07:58:01.015Z,8.20
2023-01-19T08:00:27.809Z,8.30
2023-01-19T08:03:00.185Z,8.30
2023-01-19T08:05:29.191Z,8.30
2023-01-19T08:08:00.397Z,8.30
2023-01-19T08:10:28.452Z,8.20
2023-01-19T08:12:56.342Z,8.30
2023-01-19T08:15:24.683Z,8.20
2023-01-19T08:18:00.002Z,8.20
2023-01-19T08:20:27.831Z,8.20
2023-01-19T08:23:02.864Z,8.20
2023-01-19T08:25:38.441Z,8.20
2023-01-19T08:28:06.894Z,8.20
2023-01-19T08:30:33.713Z,8.20
2023-01-19T08:33:09.462Z,8.20
2023-01-19T08:35:41.324Z,8.20
2023-01-19T08:38:09.700Z,8.20
2023-01-19T08:40:39.103Z,8.10
2023-01-19T08:43:08.356Z,8.10
2023-01-19T08:45:36.868Z,8.10
2023-01-19T08:48:04.630Z,8.00
2023-01-19T08:50:32.437Z,8.00
2023-01-19T08:53:01.417Z,8.00
2023-01-19T08:55:29.506Z,8.00
2023-01-19T08:57:58.170Z,7.90
2023-01-19T09:00:27.172Z,7.90
2023-01-19T09:02:54.909Z,7.90
2023-01-19T09:05:22.280Z,8.00
2023-01-19T09:07:49.906Z,8.00
2023-01-19T09:10:17.618Z,8.00
2023-01-19T09:12:45.093Z,8.00
2023-01-19T09:15:16.304Z,8.00
2023-01-19T09:17:42.982Z,8.00
2023-01-19T09:20:10.420Z,8.00
2023-01-19T09:22:41.741Z,8.10
2023-01-19T09:25:09.764Z,8.10
2023-01-19T09:27:36.388Z,8.20
2023-01-19T09:30:04.395Z,8.20
2023-01-19T09:32:31.208Z,8.20
2023-01-19T09:34:58.109Z,8.20
2023-01-19T09:37:24.752Z,8.20
2023-01-19T09:39:51.541Z,8.30
2023-01-19T09:42:30.621Z,8.30
2023-01-19T09:44:57.337Z,8.30
2023-01-19T09:47:28.195Z,8.30
2023-01-19T09:50:03.195Z,8.30
2023-01-19T09:52:35.920Z,8.30
2023-01-19T09:55:02.740Z,8.40
2023-01-19T09:57:35.998Z,8.40
2023-01-19T10:00:11.215Z,8.40
2023-01-19T10:03:05.109Z,8.50
2023-01-19T10:05:47.084Z,8.40
2023-01-19T10:08:28.786Z,8.50
2023-01-19T10:10:57.792Z,8.50
2023-01-19T10:14:05.624Z,8.50
2023-01-19T10:16:40.684Z,8.50
2023-01-19T10:19:29.348Z,8.50
2023-01-19T10:21:57.800Z,8.50
2023-01-19T10:24:29.962Z,8.50
2023-01-19T10:26:57.194Z,8.50
2023-01-19T10:29:35.447Z,8.50
2023-01-19T10:32:12.993Z,8.50
2023-01-19T10:34:41.548Z,8.60
2023-01-19T10:37:25.694Z,8.60
2023-01-19T10:39:56.085Z,8.60
2023-01-19T10:42:22.797Z,8.70
2023-01-19T10:44:50.260Z,8.70
2023-01-19T10:47:23.486Z,8.80
2023-01-19T10:49:50.516Z,8.80
2023-01-19T10:52:26.028Z,8.90
2023-01-19T10:54:52.971Z,8.90
2023-01-19T10:57:43.248Z,9.00
2023-01-19T11:00:38.055Z,9.00
2023-01-19T11:03:22.406Z,9.00
2023-01-19T11:05:49.354Z,9.00
2023-01-19T11:08:28.677Z,9.10
2023-01-19T11:11:05.236Z,9.10
2023-01-19T11:13:32.504Z,9.10
2023-01-19T11:16:20.086Z,9.20
2023-01-19T11:18:52.239Z,9.20
2023-01-19T11:21:25.991Z,9.20
2023-01-19T11:24:02.170Z,9.30
2023-01-19T11:29:19.158Z,9.40
2023-01-19T11:31:46.205Z,9.40
2023-01-19T11:34:26.988Z,9.50
2023-01-19T11:37:24.400Z,9.60
2023-01-19T11:39:53.416Z,9.60
2023-01-19T11:42:20.562Z,9.60
2023-01-19T11:47:27.133Z,9.80
2023-01-19T11:50:03.198Z,9.80
2023-01-19T11:55:41.318Z,10.00
2023-01-19T11:58:17.559Z,10.10
2023-01-19T12:01:04.091Z,10.10
2023-01-19T12:03:55.456Z,10.10
2023-01-19T12:06:28.352Z,10.20
2023-01-19T12:09:11.348Z,10.30
2023-01-19T12:14:42.180Z,10.50
2023-01-19T12:30:02.720Z,10.60
2023-01-19T12:32:34.568Z,10.90
2023-01-19T12:35:01.430Z,10.90
2023-01-19T12:37:28.942Z,10.90
2023-01-19T12:40:02.901Z,10.90
2023-01-19T12:42:30.219Z,11.00
2023-01-19T12:45:08.754Z,11.10
2023-01-19T12:47:37.146Z,11.10
2023-01-19T12:50:13.249Z,11.10
2023-01-19T12:52:51.199Z,11.20
2023-01-19T12:55:38.994Z,11.20
2023-01-19T12:58:18.827Z,11.20
2023-01-19T13:00:48.903Z,11.20
2023-01-19T13:03:25.644Z,11.30
2023-01-19T13:05:56.784Z,11.30
2023-01-19T13:08:56.134Z,11.40
2023-01-19T13:11:25.973Z,11.40
2023-01-19T13:13:59.416Z,11.40
2023-01-19T13:16:27.372Z,11.50
2023-01-19T13:19:06.216Z,11.50
2023-01-19T13:21:36.198Z,11.50
2023-01-19T13:24:05.765Z,11.60
2023-01-19T13:26:33.519Z,11.50
2023-01-19T13:29:26.516Z,11.50
2023-01-19T13:31:55.426Z,11.40
2023-01-19T13:34:27.719Z,11.50
2023-01-19T13:36:57.051Z,11.50
2023-01-19T13:39:40.951Z,11.50
2023-01-19T13:42:16.743Z,11.60
2023-01-19T13:44:52.234Z,11.60
2023-01-19T13:47:33.289Z,11.60
2023-01-19T13:50:01.753Z,11.50
2023-01-19T13:52:29.734Z,11.50
2023-01-19T13:55:03.671Z,11.40
2023-01-19T13:57:31.754Z,11.40
2023-01-19T14:00:14.530Z,11.40
2023-01-19T14:03:01.076Z,11.40
2023-01-19T14:05:33.508Z,11.40
2023-01-19T14:08:12.296Z,11.40
2023-01-19T14:10:41.999Z,11.30
2023-01-19T14:13:25.014Z,11.40
2023-01-19T14:15:55.479Z,11.30
2023-01-19T14:18:24.680Z,11.30
2023-01-19T14:20:54.167Z,11.20
2023-01-19T14:23:42.364Z,11.30
2023-01-19T14:26:37.088Z,11.20
2023-01-19T14:29:27.034Z,11.20
2023-01-19T14:32:12.839Z,11.20
2023-01-19T14:35:04.530Z,11.20
2023-01-19T14:37:37.277Z,11.10
2023-01-19T14:40:20.295Z,11.10
2023-01-19T14:43:03.181Z,11.20
2023-01-19T14:45:41.303Z,11.20
2023-01-19T14:48:22.250Z,11.30
2023-01-19T14:51:02.744Z,11.20
2023-01-19T14:53:36.611Z,11.20
2023-01-19T14:56:05.617Z,11.20
2023-01-19T14:58:36.120Z,11.20
2023-01-19T15:01:03.150Z,11.20
2023-01-19T15:03:43.710Z,11.20
2023-01-19T15:06:20.160Z,11.20
2023-01-19T15:08:49.987Z,11.10
2023-01-19T15:11:24.885Z,11.10
2023-01-19T15:13:51.990Z,11.10
2023-01-19T15:16:19.486Z,11.10
2023-01-19T15:18:46.284Z,11.00
2023-01-19T15:21:19.986Z,11.00
2023-01-19T15:23:47.661Z,11.00
2023-01-19T15:26:17.510Z,11.10
2023-01-19T15:28:45.452Z,11.00
2023-01-19T15:31:16.075Z,11.00
2023-01-19T15:33:43.066Z,11.00
2023-01-19T15:36:21.758Z,11.10
2023-01-19T15:38:50.855Z,11.10
2023-01-19T15:41:23.522Z,11.20
2023-01-19T15:43:50.652Z,11.20
2023-01-19T15:46:20.628Z,11.20
2023-01-19T15:48:48.259Z,11.30
2023-01-19T15:51:20.097Z,11.20
2023-01-19T15:53:47.481Z,11.10
2023-01-19T15:56:15.908Z,11.10
2023-01-19T15:58:43.537Z,11.00
2023-01-19T16:01:13.244Z,11.00
2023-01-19T16:03:40.138Z,10.90
2023-01-19T16:06:07.241Z,10.80
2023-01-19T16:08:34.187Z,10.80
2023-01-19T16:11:09.733Z,10.80
2023-01-19T16:13:36.837Z,10.80
2023-01-19T16:16:05.409Z,10.80
2023-01-19T16:18:32.318Z,10.80
2023-01-19T16:20:59.103Z,10.80
2023-01-19T16:23:26.049Z,10.80
2023-01-19T16:26:04.883Z,10.80
2023-01-19T16:28:31.946Z,10.80
2023-01-19T16:30:58.761Z,10.70
2023-01-19T16:33:25.474Z,10.70
2023-01-19T16:35:52.556Z,10.70
2023-01-19T16:38:19.373Z,10.60
2023-01-19T16:40:47.459Z,10.60
2023-01-19T16:43:18.243Z,10.50
2023-01-19T16:46:00.129Z,10.40
2023-01-19T16:48:27.473Z,10.40
2023-01-19T16:51:03.054Z,10.40
2023-01-19T16:53:30.611Z,10.40
2023-01-19T16:55:57.488Z,10.30
2023-01-19T16:58:24.447Z,10.30
2023-01-19T17:00:51.314Z,10.20
2023-01-19T17:03:18.033Z,10.20
2023-01-19T17:05:49.987Z,10.10
2023-01-19T17:08:19.698Z,10.10
2023-01-19T17:10:47.729Z,10.10
2023-01-19T17:13:14.482Z,10.00
2023-01-19T17:15:41.309Z,10.00
2023-01-19T17:18:10.002Z,10.00
2023-01-19T17:20:36.863Z,9.90
2023-01-19T17:23:03.601Z,9.90
2023-01-19T17:25:30.367Z,9.90
2023-01-19T17:28:00.280Z,9.90
2023-01-19T17:30:27.405Z,9.90
2023-01-19T17:32:54.124Z,9.90
2023-01-19T17:35:20.942Z,9.90
2023-01-19T17:37:47.709Z,9.90
2023-01-19T17:40:14.937Z,9.90
2023-01-19T17:42:41.950Z,9.90
2023-01-19T17:45:10.838Z,9.90
2023-01-19T17:47:38.120Z,9.90
2023-01-19T17:50:05.428Z,9.90
2023-01-19T17:52:32.155Z,9.80
2023-01-19T17:54:58.824Z,9.80
2023-01-19T17:57:25.458Z,9.80
2023-01-19T17:59:53.327Z,9.80
2023-01-19T18:02:24.305Z,9.70
2023-01-19T18:04:52.821Z,9.70
2023-01-19T18:07:19.763Z,9.70
2023-01-19T18:09:46.406Z,9.70
2023-01-19T18:12:13.438Z,9.70
2023-01-19T18:14:41.026Z,9.60
2023-01-19T18:17:08.127Z,9.70
2023-01-19T18:19:34.857Z,9.60
2023-01-19T18:22:01.683Z,9.60
2023-01-19T18:24:28.598Z,9.70
2023-01-19T18:26:55.810Z,9.60
2023-01-19T18:29:22.993Z,9.60
2023-01-19T18:31:49.692Z,9.60
2023-01-19T18:34:16.353Z,9.60
2023-01-19T18:36:43.120Z,9.60
2023-01-19T18:39:09.885Z,9.60
2023-01-19T18:41:41.655Z,9.50
2023-01-19T18:44:12.272Z,9.60
2023-01-19T18:46:40.213Z,9.60
2023-01-19T18:49:07.369Z,9.60
2023-01-19T18:51:34.125Z,9.60
2023-01-19T18:54:00.841Z,9.60
2023-01-19T18:56:27.650Z,9.50
2023-01-19T18:58:54.523Z,9.60
2023-01-19T19:01:27.051Z,9.60
2023-01-19T19:03:54.659Z,9.60
2023-01-19T19:06:21.867Z,9.50
2023-01-19T19:08:52.463Z,9.50
2023-01-19T19:11:21.145Z,9.50
2023-01-19T19:13:59.482Z,9.50
2023-01-19T19:16:27.136Z,9.40
2023-01-19T19:18:54.008Z,9.30
2023-01-19T19:21:22.611Z,9.30
2023-01-19T19:23:54.242Z,9.30
2023-01-19T19:26:21.297Z,9.30
2023-01-19T19:28:48.086Z,9.40
2023-01-19T19:31:18.039Z,9.40
2023-01-19T19:33:44.860Z,9.40
2023-01-19T19:36:12.671Z,9.40
2023-01-19T19:38:41.175Z,9.40
2023-01-19T19:41:12.215Z,9.50
2023-01-19T19:43:40.607Z,9.40
2023-01-19T19:46:10.414Z,9.50
2023-01-19T19:48:39.379Z,9.50
2023-01-19T19:51:17.934Z,9.50
2023-01-19T19:53:46.137Z,9.50
2023-01-19T19:56:13.737Z,9.50
2023-01-19T19:58:42.127Z,9.40
2023-01-19T20:01:11.455Z,9.40
2023-01-19T20:03:38.295Z,9.40
2023-01-19T20:06:07.101Z,9.40
2023-01-19T20:08:33.697Z,9.40
2023-01-19T20:11:09.481Z,9.40
2023-01-19T20:13:38.716Z,9.40
2023-01-19T20:16:10.385Z,9.40
2023-01-19T20:18:40.846Z,9.40
2023-01-19T20:21:19.360Z,9.40
2023-01-19T20:23:47.366Z,9.50
2023-01-19T20:26:16.740Z,9.50
2023-01-19T20:28:43.625Z,9.50
2023-01-19T20:31:19.038Z,9.50
2023-01-19T20:33:47.037Z,9.40
2023-01-19T20:36:14.642Z,9.40
2023-01-19T20:38:42.214Z,9.40
2023-01-19T20:41:10.353Z,9.40
2023-01-19T20:43:37.150Z,9.40
2023-01-19T20:46:04.244Z,9.40
2023-01-19T20:48:31.521Z,9.30
2023-01-19T20:51:03.068Z,9.40
2023-01-19T20:53:30.077Z,9.30
2023-01-19T20:55:58.198Z,9.30
2023-01-19T20:58:25.075Z,9.20
2023-01-19T21:00:52.011Z,9.20
2023-01-19T21:03:18.846Z,9.20
2023-01-19T21:05:48.381Z,9.20
2023-01-19T21:08:15.506Z,9.20
2023-01-19T21:10:43.026Z,9.20
2023-01-19T21:13:09.783Z,9.20
2023-01-19T21:15:36.439Z,9.20
2023-01-19T21:18:03.578Z,9.20
2023-01-19T21:20:30.437Z,9.10
2023-01-19T21:22:58.824Z,9.10
2023-01-19T21:25:25.698Z,9.10
2023-01-19T21:27:55.089Z,9.10
2023-01-19T21:30:21.924Z,9.10
2023-01-19T21:32:48.694Z,9.10
2023-01-19T21:35:15.458Z,9.10
2023-01-19T21:37:42.140Z,9.10
2023-01-19T21:40:09.704Z,9.00
2023-01-19T21:42:36.483Z,9.00
2023-01-19T21:45:03.292Z,9.00
2023-01-19T21:49:57.055Z,8.90
2023-01-19T21:52:25.783Z,8.70
2023-01-19T21:54:52.523Z,8.60
2023-01-19T21:57:19.730Z,8.50
2023-01-19T21:59:46.528Z,8.50
2023-01-19T22:02:13.265Z,8.50
2023-01-19T22:04:40.708Z,8.50
2023-01-19T22:07:07.452Z,8.40
2023-01-19T22:09:35.365Z,8.40
2023-01-19T22:12:02.587Z,8.30
2023-01-19T22:14:29.396Z,8.30
2023-01-19T22:16:56.229Z,8.20
2023-01-19T22:19:22.989Z,8.20
2023-01-19T22:21:49.769Z,8.10
2023-01-19T22:24:16.405Z,8.00
2023-01-19T22:26:43.127Z,8.00
2023-01-19T22:29:11.820Z,7.90
2023-01-19T22:31:39.128Z,7.80
2023-01-19T22:34:10.248Z,7.80
2023-01-19T22:36:37.762Z,7.80
2023-01-19T22:39:07.099Z,7.80
2023-01-19T22:41:35.349Z,7.90
2023-01-19T22:44:05.075Z,7.80
2023-01-19T22:46:33.664Z,7.80
2023-01-19T22:49:01.658Z,7.80
2023-01-19T22:51:29.767Z,7.80
2023-01-19T22:53:56.446Z,7.80
2023-01-19T22:56:25.924Z,7.90
2023-01-19T22:58:53.278Z,7.80
2023-01-19T23:01:22.499Z,7.80
2023-01-19T23:03:49.958Z,7.80
2023-01-19T23:06:19.291Z,7.80
2023-01-19T23:08:46.206Z,7.80
2023-01-19T23:11:24.741Z,7.70
2023-01-19T23:13:51.829Z,7.70
2023-01-19T23:16:19.460Z,7.60
2023-01-19T23:18:46.356Z,7.60
2023-01-19T23:21:16.443Z,7.60
2023-01-19T23:23:44.657Z,7.60
2023-01-19T23:26:14.599Z,7.60
2023-01-19T23:28:41.369Z,7.70
2023-01-19T23:31:18.195Z,7.70
2023-01-19T23:33:45.201Z,7.70
2023-01-19T23:36:12.366Z,7.70
2023-01-19T23:38:39.938Z,7.70
2023-01-19T23:41:06.715Z,7.70
2023-01-19T23:43:33.710Z,7.60
2023-01-19T23:46:05.094Z,7.60
2023-01-19T23:48:32.942Z,7.50
2023-01-19T23:50:59.632Z,7.40
2023-01-19T23:53:26.300Z,7.50
2023-01-19T23:55:52.932Z,7.50
2023-01-19T23:58:19.557Z,7.50
